sensor_id;sensor_type;location;lat;lon;timestamp;temperature;humidity
2260;DHT22;333;48.800;9.530;2024-02-28T00:02:01;7.80;99.60
2260;DHT22;333;48.800;9.530;2024-02-28T00:04:28;7.70;99.60
2260;DHT22;333;48.800;9.530;2024-02-28T00:06:55;7.80;99.60
2260;DHT22;333;48.800;9.530;2024-02-28T00:09:24;7.80;99.60
2260;DHT22;333;48.800;9.530;2024-02-28T00:11:51;8.00;99.60
2260;DHT22;333;48.800;9.530;2024-02-28T00:14:18;8.00;99.60
2260;DHT22;333;48.800;9.530;2024-02-28T00:16:46;8.10;99.60
2260;DHT22;333;48.800;9.530;2024-02-28T00:19:13;7.90;99.60
2260;DHT22;333;48.800;9.530;2024-02-28T00:21:42;7.80;99.60
2260;DHT22;333;48.800;9.530;2024-02-28T00:24:09;7.80;99.60
2260;DHT22;333;48.800;9.530;2024-02-28T00:26:40;7.80;99.60
2260;DHT22;333;48.800;9.530;2024-02-28T00:29:07;7.80;99.60
2260;DHT22;333;48.800;9.530;2024-02-28T00:31:33;7.90;99.60
2260;DHT22;333;48.800;9.530;2024-02-28T00:34:00;7.90;99.60
2260;DHT22;333;48.800;9.530;2024-02-28T00:36:27;8.00;99.60
2260;DHT22;333;48.800;9.530;2024-02-28T00:38:55;8.00;99.60
2260;DHT22;333;48.800;9.530;2024-02-28T00:41:21;8.00;99.60
2260;DHT22;333;48.800;9.530;2024-02-28T00:43:50;7.80;99.60
2260;DHT22;333;48.800;9.530;2024-02-28T00:46:17;7.80;99.60
2260;DHT22;333;48.800;9.530;2024-02-28T00:48:44;7.80;99.60
2260;DHT22;333;48.800;9.530;2024-02-28T00:51:11;7.80;99.60
2260;DHT22;333;48.800;9.530;2024-02-28T00:53:38;7.80;99.60
2260;DHT22;333;48.800;9.530;2024-02-28T00:56:05;7.90;99.60
2260;DHT22;333;48.800;9.530;2024-02-28T00:58:33;7.90;99.60
2260;DHT22;333;48.800;9.530;2024-02-28T01:01:01;7.90;99.60
2260;DHT22;333;48.800;9.530;2024-02-28T01:03:28;7.90;99.60
2260;DHT22;333;48.800;9.530;2024-02-28T01:05:55;7.80;99.60
2260;DHT22;333;48.800;9.530;2024-02-28T01:08:22;7.80;99.60
2260;DHT22;333;48.800;9.530;2024-02-28T01:10:49;7.80;99.60
2260;DHT22;333;48.800;9.530;2024-02-28T01:13:16;7.70;99.60
2260;DHT22;333;48.800;9.530;2024-02-28T01:15:43;7.70;99.60
2260;DHT22;333;48.800;9.530;2024-02-28T01:18:11;7.80;99.60
2260;DHT22;333;48.800;9.530;2024-02-28T01:20:38;7.80;99.60
2260;DHT22;333;48.800;9.530;2024-02-28T01:23:05;7.80;99.60
2260;DHT22;333;48.800;9.530;2024-02-28T01:25:32;7.70;99.60
2260;DHT22;333;48.800;9.530;2024-02-28T01:27:59;7.70;99.60
2260;DHT22;333;48.800;9.530;2024-02-28T01:30:26;7.60;99.60
2260;DHT22;333;48.800;9.530;2024-02-28T01:32:53;7.70;99.60
2260;DHT22;333;48.800;9.530;2024-02-28T01:35:21;7.70;99.60
2260;DHT22;333;48.800;9.530;2024-02-28T01:37:48;7.70;99.60
2260;DHT22;333;48.800;9.530;2024-02-28T01:40:15;7.70;99.60
2260;DHT22;333;48.800;9.530;2024-02-28T01:42:42;7.80;99.60
2260;DHT22;333;48.800;9.530;2024-02-28T01:45:13;7.80;99.60
2260;DHT22;333;48.800;9.530;2024-02-28T01:47:41;7.70;99.60
2260;DHT22;333;48.800;9.530;2024-02-28T01:50:09;7.70;99.60
2260;DHT22;333;48.800;9.530;2024-02-28T01:52:39;7.70;99.60
2260;DHT22;333;48.800;9.530;2024-02-28T01:55:07;7.70;99.60
2260;DHT22;333;48.800;9.530;2024-02-28T01:57:37;7.70;99.60
2260;DHT22;333;48.800;9.530;2024-02-28T02:00:05;7.70;99.60
2260;DHT22;333;48.800;9.530;2024-02-28T02:02:34;7.70;99.60
2260;DHT22;333;48.800;9.530;2024-02-28T02:05:01;7.80;99.60
2260;DHT22;333;48.800;9.530;2024-02-28T02:07:28;7.80;99.60
2260;DHT22;333;48.800;9.530;2024-02-28T02:09:56;7.70;99.60
2260;DHT22;333;48.800;9.530;2024-02-28T02:12:23;7.70;99.60
2260;DHT22;333;48.800;9.530;2024-02-28T02:14:50;7.70;99.60
2260;DHT22;333;48.800;9.530;2024-02-28T02:17:17;7.70;99.60
2260;DHT22;333;48.800;9.530;2024-02-28T02:19:44;7.70;99.60
2260;DHT22;333;48.800;9.530;2024-02-28T02:22:13;7.70;99.60
2260;DHT22;333;48.800;9.530;2024-02-28T02:24:42;7.60;99.60
2260;DHT22;333;48.800;9.530;2024-02-28T02:27:09;7.60;99.60
2260;DHT22;333;48.800;9.530;2024-02-28T02:29:36;7.60;99.60
2260;DHT22;333;48.800;9.530;2024-02-28T02:32:03;7.60;99.60
2260;DHT22;333;48.800;9.530;2024-02-28T02:34:30;7.70;99.60
2260;DHT22;333;48.800;9.530;2024-02-28T02:36:57;7.70;99.60
2260;DHT22;333;48.800;9.530;2024-02-28T02:39:24;7.70;99.60
2260;DHT22;333;48.800;9.530;2024-02-28T02:41:53;7.70;99.60
2260;DHT22;333;48.800;9.530;2024-02-28T02:44:20;7.70;99.60
2260;DHT22;333;48.800;9.530;2024-02-28T02:46:47;7.70;99.60
2260;DHT22;333;48.800;9.530;2024-02-28T02:49:14;7.60;99.60
2260;DHT22;333;48.800;9.530;2024-02-28T02:51:41;7.50;99.60
2260;DHT22;333;48.800;9.530;2024-02-28T02:54:09;7.60;99.60
2260;DHT22;333;48.800;9.530;2024-02-28T02:56:36;7.60;99.60
2260;DHT22;333;48.800;9.530;2024-02-28T02:59:06;7.70;99.60
2260;DHT22;333;48.800;9.530;2024-02-28T03:01:34;7.70;99.60
2260;DHT22;333;48.800;9.530;2024-02-28T03:04:01;7.80;99.60
2260;DHT22;333;48.800;9.530;2024-02-28T03:06:33;7.80;99.60
2260;DHT22;333;48.800;9.530;2024-02-28T03:09:00;7.70;99.60
2260;DHT22;333;48.800;9.530;2024-02-28T03:11:27;7.60;99.60
2260;DHT22;333;48.800;9.530;2024-02-28T03:13:54;7.50;99.60
2260;DHT22;333;48.800;9.530;2024-02-28T03:16:22;7.50;99.60
2260;DHT22;333;48.800;9.530;2024-02-28T03:18:49;7.50;99.60
2260;DHT22;333;48.800;9.530;2024-02-28T03:21:16;7.50;99.60
2260;DHT22;333;48.800;9.530;2024-02-28T03:23:43;7.50;99.60
2260;DHT22;333;48.800;9.530;2024-02-28T03:26:10;7.40;99.60
2260;DHT22;333;48.800;9.530;2024-02-28T03:28:37;7.50;99.60
2260;DHT22;333;48.800;9.530;2024-02-28T03:31:05;7.40;99.60
2260;DHT22;333;48.800;9.530;2024-02-28T03:33:33;7.40;99.60
2260;DHT22;333;48.800;9.530;2024-02-28T03:36:01;7.40;99.60
2260;DHT22;333;48.800;9.530;2024-02-28T03:38:28;7.30;99.60
2260;DHT22;333;48.800;9.530;2024-02-28T03:40:55;7.30;99.60
2260;DHT22;333;48.800;9.530;2024-02-28T03:43:22;7.30;99.60
2260;DHT22;333;48.800;9.530;2024-02-28T03:45:49;7.30;99.60
2260;DHT22;333;48.800;9.530;2024-02-28T03:48:16;7.40;99.60
2260;DHT22;333;48.800;9.530;2024-02-28T03:50:44;7.30;99.60
2260;DHT22;333;48.800;9.530;2024-02-28T03:53:11;7.30;99.60
2260;DHT22;333;48.800;9.530;2024-02-28T03:55:38;7.30;99.60
2260;DHT22;333;48.800;9.530;2024-02-28T03:58:05;7.40;99.60
2260;DHT22;333;48.800;9.530;2024-02-28T04:00:34;7.40;99.60
2260;DHT22;333;48.800;9.530;2024-02-28T04:03:00;7.40;99.60
2260;DHT22;333;48.800;9.530;2024-02-28T04:05:28;7.40;99.60
2260;DHT22;333;48.800;9.530;2024-02-28T04:07:57;7.30;99.60
2260;DHT22;333;48.800;9.530;2024-02-28T04:10:24;7.30;99.60
2260;DHT22;333;48.800;9.530;2024-02-28T04:12:51;7.30;99.60
2260;DHT22;333;48.800;9.530;2024-02-28T04:15:18;7.30;99.60
2260;DHT22;333;48.800;9.530;2024-02-28T04:17:45;7.30;99.60
2260;DHT22;333;48.800;9.530;2024-02-28T04:20:12;7.30;99.60
2260;DHT22;333;48.800;9.530;2024-02-28T04:22:41;7.30;99.60
2260;DHT22;333;48.800;9.530;2024-02-28T04:25:10;7.20;99.60
2260;DHT22;333;48.800;9.530;2024-02-28T04:27:36;7.20;99.60
2260;DHT22;333;48.800;9.530;2024-02-28T04:30:04;7.20;99.60
2260;DHT22;333;48.800;9.530;2024-02-28T04:32:31;7.10;99.60
2260;DHT22;333;48.800;9.530;2024-02-28T04:34:57;7.20;99.60
2260;DHT22;333;48.800;9.530;2024-02-28T04:37:24;7.20;99.60
2260;DHT22;333;48.800;9.530;2024-02-28T04:39:51;7.20;99.60
2260;DHT22;333;48.800;9.530;2024-02-28T04:42:20;7.20;99.60
2260;DHT22;333;48.800;9.530;2024-02-28T04:44:47;7.20;99.60
2260;DHT22;333;48.800;9.530;2024-02-28T04:47:14;7.20;99.60
2260;DHT22;333;48.800;9.530;2024-02-28T04:49:40;7.20;99.60
2260;DHT22;333;48.800;9.530;2024-02-28T04:52:07;7.20;99.60
2260;DHT22;333;48.800;9.530;2024-02-28T04:54:34;7.20;99.60
2260;DHT22;333;48.800;9.530;2024-02-28T04:57:03;7.10;99.60
2260;DHT22;333;48.800;9.530;2024-02-28T04:59:31;7.10;99.60
2260;DHT22;333;48.800;9.530;2024-02-28T05:01:58;7.10;99.60
2260;DHT22;333;48.800;9.530;2024-02-28T05:04:25;7.10;99.60
2260;DHT22;333;48.800;9.530;2024-02-28T05:06:52;7.10;99.60
2260;DHT22;333;48.800;9.530;2024-02-28T05:09:19;7.10;99.60
2260;DHT22;333;48.800;9.530;2024-02-28T05:11:46;7.10;99.60
2260;DHT22;333;48.800;9.530;2024-02-28T05:14:13;7.10;99.60
2260;DHT22;333;48.800;9.530;2024-02-28T05:16:41;7.10;99.60
2260;DHT22;333;48.800;9.530;2024-02-28T05:19:08;7.10;99.60
2260;DHT22;333;48.800;9.530;2024-02-28T05:21:40;7.10;99.60
2260;DHT22;333;48.800;9.530;2024-02-28T05:24:08;7.20;99.60
2260;DHT22;333;48.800;9.530;2024-02-28T05:26:35;7.10;99.60
2260;DHT22;333;48.800;9.530;2024-02-28T05:29:03;7.00;99.60
2260;DHT22;333;48.800;9.530;2024-02-28T05:31:31;7.00;99.60
2260;DHT22;333;48.800;9.530;2024-02-28T05:34:00;7.20;99.60
2260;DHT22;333;48.800;9.530;2024-02-28T05:36:28;7.10;99.60
2260;DHT22;333;48.800;9.530;2024-02-28T05:38:57;7.00;99.60
2260;DHT22;333;48.800;9.530;2024-02-28T05:41:24;6.90;99.60
2260;DHT22;333;48.800;9.530;2024-02-28T05:43:52;6.90;99.60
2260;DHT22;333;48.800;9.530;2024-02-28T05:46:19;6.90;99.60
2260;DHT22;333;48.800;9.530;2024-02-28T05:48:47;6.80;99.60
2260;DHT22;333;48.800;9.530;2024-02-28T05:51:16;6.90;99.60
2260;DHT22;333;48.800;9.530;2024-02-28T05:53:43;6.90;99.60
2260;DHT22;333;48.800;9.530;2024-02-28T05:56:11;6.90;99.60
2260;DHT22;333;48.800;9.530;2024-02-28T05:58:40;6.80;99.60
2260;DHT22;333;48.800;9.530;2024-02-28T06:01:08;6.80;99.60
2260;DHT22;333;48.800;9.530;2024-02-28T06:03:36;6.90;99.60
2260;DHT22;333;48.800;9.530;2024-02-28T06:06:03;6.90;99.60
2260;DHT22;333;48.800;9.530;2024-02-28T06:08:34;6.90;99.60
2260;DHT22;333;48.800;9.530;2024-02-28T06:11:02;6.90;99.60
2260;DHT22;333;48.800;9.530;2024-02-28T06:13:29;6.90;99.60
2260;DHT22;333;48.800;9.530;2024-02-28T06:15:56;6.90;99.60
2260;DHT22;333;48.800;9.530;2024-02-28T06:18:23;6.80;99.60
2260;DHT22;333;48.800;9.530;2024-02-28T06:20:52;6.90;99.60
2260;DHT22;333;48.800;9.530;2024-02-28T06:23:20;6.90;99.60
2260;DHT22;333;48.800;9.530;2024-02-28T06:25:49;7.00;99.60
2260;DHT22;333;48.800;9.530;2024-02-28T06:28:16;7.00;99.60
2260;DHT22;333;48.800;9.530;2024-02-28T06:30:43;7.10;99.60
2260;DHT22;333;48.800;9.530;2024-02-28T06:33:11;7.00;99.60
2260;DHT22;333;48.800;9.530;2024-02-28T06:35:38;6.90;99.60
2260;DHT22;333;48.800;9.530;2024-02-28T06:38:05;6.90;99.60
2260;DHT22;333;48.800;9.530;2024-02-28T06:40:33;7.20;99.60
2260;DHT22;333;48.800;9.530;2024-02-28T06:43:01;7.20;99.60
2260;DHT22;333;48.800;9.530;2024-02-28T06:45:28;7.20;99.60
2260;DHT22;333;48.800;9.530;2024-02-28T06:47:55;7.20;99.60
2260;DHT22;333;48.800;9.530;2024-02-28T06:50:22;7.30;99.60
2260;DHT22;333;48.800;9.530;2024-02-28T06:52:49;7.30;99.60
2260;DHT22;333;48.800;9.530;2024-02-28T06:55:19;7.30;99.60
2260;DHT22;333;48.800;9.530;2024-02-28T06:57:46;7.30;99.60
2260;DHT22;333;48.800;9.530;2024-02-28T07:00:15;7.20;99.60
2260;DHT22;333;48.800;9.530;2024-02-28T07:02:44;7.20;99.60
2260;DHT22;333;48.800;9.530;2024-02-28T07:05:12;7.30;99.60
2260;DHT22;333;48.800;9.530;2024-02-28T07:07:39;7.20;99.60
2260;DHT22;333;48.800;9.530;2024-02-28T07:10:07;7.20;99.60
2260;DHT22;333;48.800;9.530;2024-02-28T07:12:33;7.10;99.60
2260;DHT22;333;48.800;9.530;2024-02-28T07:15:01;7.20;99.60
2260;DHT22;333;48.800;9.530;2024-02-28T07:17:29;7.10;99.60
2260;DHT22;333;48.800;9.530;2024-02-28T07:19:56;7.10;99.60
2260;DHT22;333;48.800;9.530;2024-02-28T07:22:23;7.20;99.60
2260;DHT22;333;48.800;9.530;2024-02-28T07:24:50;7.20;99.60
2260;DHT22;333;48.800;9.530;2024-02-28T07:27:17;7.20;99.60
2260;DHT22;333;48.800;9.530;2024-02-28T07:29:44;7.40;99.60
2260;DHT22;333;48.800;9.530;2024-02-28T07:32:11;7.30;99.60
2260;DHT22;333;48.800;9.530;2024-02-28T07:34:39;7.20;99.60
2260;DHT22;333;48.800;9.530;2024-02-28T07:37:06;7.30;99.60
2260;DHT22;333;48.800;9.530;2024-02-28T07:39:33;7.20;99.60
2260;DHT22;333;48.800;9.530;2024-02-28T07:42:00;7.30;99.60
2260;DHT22;333;48.800;9.530;2024-02-28T07:44:27;7.50;99.60
2260;DHT22;333;48.800;9.530;2024-02-28T07:46:57;7.40;99.60
2260;DHT22;333;48.800;9.530;2024-02-28T07:49:24;7.50;99.60
2260;DHT22;333;48.800;9.530;2024-02-28T07:51:52;7.40;99.60
2260;DHT22;333;48.800;9.530;2024-02-28T07:54:20;7.30;99.60
2260;DHT22;333;48.800;9.530;2024-02-28T07:56:48;7.30;99.60
2260;DHT22;333;48.800;9.530;2024-02-28T07:59:15;7.20;99.60
2260;DHT22;333;48.800;9.530;2024-02-28T08:01:42;7.40;99.60
2260;DHT22;333;48.800;9.530;2024-02-28T08:04:11;7.30;99.60
2260;DHT22;333;48.800;9.530;2024-02-28T08:06:40;7.20;99.60
2260;DHT22;333;48.800;9.530;2024-02-28T08:09:09;7.20;99.60
2260;DHT22;333;48.800;9.530;2024-02-28T08:11:37;7.20;99.60
2260;DHT22;333;48.800;9.530;2024-02-28T08:14:05;7.20;99.60
2260;DHT22;333;48.800;9.530;2024-02-28T08:16:32;7.20;99.60
2260;DHT22;333;48.800;9.530;2024-02-28T08:18:59;7.30;99.60
2260;DHT22;333;48.800;9.530;2024-02-28T08:21:26;7.40;99.60
2260;DHT22;333;48.800;9.530;2024-02-28T08:23:53;7.40;99.60
2260;DHT22;333;48.800;9.530;2024-02-28T08:26:22;7.30;99.60
2260;DHT22;333;48.800;9.530;2024-02-28T08:28:52;7.30;99.60
2260;DHT22;333;48.800;9.530;2024-02-28T08:31:20;7.30;99.60
2260;DHT22;333;48.800;9.530;2024-02-28T08:33:47;7.30;99.60
2260;DHT22;333;48.800;9.530;2024-02-28T08:36:14;7.40;99.60
2260;DHT22;333;48.800;9.530;2024-02-28T08:38:41;7.50;99.60
2260;DHT22;333;48.800;9.530;2024-02-28T08:41:08;7.40;99.60
2260;DHT22;333;48.800;9.530;2024-02-28T08:43:39;7.40;99.60
2260;DHT22;333;48.800;9.530;2024-02-28T08:46:06;7.60;99.60
2260;DHT22;333;48.800;9.530;2024-02-28T08:48:33;7.70;99.60
2260;DHT22;333;48.800;9.530;2024-02-28T08:51:00;7.50;99.60
2260;DHT22;333;48.800;9.530;2024-02-28T08:53:27;7.60;99.60
2260;DHT22;333;48.800;9.530;2024-02-28T08:55:54;7.70;99.60
2260;DHT22;333;48.800;9.530;2024-02-28T08:58:21;7.50;99.60
2260;DHT22;333;48.800;9.530;2024-02-28T09:00:50;7.40;99.60
2260;DHT22;333;48.800;9.530;2024-02-28T09:03:16;7.40;99.60
2260;DHT22;333;48.800;9.530;2024-02-28T09:05:51;7.30;99.60
2260;DHT22;333;48.800;9.530;2024-02-28T09:08:18;7.30;99.60
2260;DHT22;333;48.800;9.530;2024-02-28T09:10:45;7.30;99.60
2260;DHT22;333;48.800;9.530;2024-02-28T09:13:13;7.30;99.60
2260;DHT22;333;48.800;9.530;2024-02-28T09:15:40;7.20;99.60
2260;DHT22;333;48.800;9.530;2024-02-28T09:18:08;7.20;99.60
2260;DHT22;333;48.800;9.530;2024-02-28T09:20:36;7.20;99.60
2260;DHT22;333;48.800;9.530;2024-02-28T09:23:03;7.30;99.60
2260;DHT22;333;48.800;9.530;2024-02-28T09:25:32;7.40;99.60
2260;DHT22;333;48.800;9.530;2024-02-28T09:28:02;7.40;99.60
2260;DHT22;333;48.800;9.530;2024-02-28T09:30:29;7.50;99.60
2260;DHT22;333;48.800;9.530;2024-02-28T09:32:56;7.40;99.60
2260;DHT22;333;48.800;9.530;2024-02-28T09:35:25;7.40;99.60
2260;DHT22;333;48.800;9.530;2024-02-28T09:37:52;7.30;99.60
2260;DHT22;333;48.800;9.530;2024-02-28T09:40:19;7.30;99.60
2260;DHT22;333;48.800;9.530;2024-02-28T09:42:48;7.20;99.60
2260;DHT22;333;48.800;9.530;2024-02-28T09:45:20;7.20;99.60
2260;DHT22;333;48.800;9.530;2024-02-28T09:47:48;7.30;99.60
2260;DHT22;333;48.800;9.530;2024-02-28T09:50:15;7.20;99.60
2260;DHT22;333;48.800;9.530;2024-02-28T09:52:46;7.10;99.60
2260;DHT22;333;48.800;9.530;2024-02-28T09:55:13;7.10;99.60
2260;DHT22;333;48.800;9.530;2024-02-28T09:57:41;7.20;99.60
2260;DHT22;333;48.800;9.530;2024-02-28T10:00:10;7.20;99.60
2260;DHT22;333;48.800;9.530;2024-02-28T10:02:37;7.20;99.60
2260;DHT22;333;48.800;9.530;2024-02-28T10:05:06;7.10;99.60
2260;DHT22;333;48.800;9.530;2024-02-28T10:07:35;7.30;99.60
2260;DHT22;333;48.800;9.530;2024-02-28T10:10:05;7.30;99.60
2260;DHT22;333;48.800;9.530;2024-02-28T10:12:35;7.30;99.60
2260;DHT22;333;48.800;9.530;2024-02-28T10:15:02;7.40;99.60
2260;DHT22;333;48.800;9.530;2024-02-28T10:17:29;7.40;99.60
2260;DHT22;333;48.800;9.530;2024-02-28T10:19:58;7.80;99.60
2260;DHT22;333;48.800;9.530;2024-02-28T10:22:25;7.90;99.60
2260;DHT22;333;48.800;9.530;2024-02-28T10:24:57;8.00;99.60
2260;DHT22;333;48.800;9.530;2024-02-28T10:27:26;7.90;99.60
2260;DHT22;333;48.800;9.530;2024-02-28T10:29:53;7.90;99.60
2260;DHT22;333;48.800;9.530;2024-02-28T10:32:20;8.00;99.60
2260;DHT22;333;48.800;9.530;2024-02-28T10:34:49;8.20;99.60
2260;DHT22;333;48.800;9.530;2024-02-28T10:37:18;8.20;99.60
2260;DHT22;333;48.800;9.530;2024-02-28T10:39:45;8.30;99.60
2260;DHT22;333;48.800;9.530;2024-02-28T10:42:15;8.20;99.60
2260;DHT22;333;48.800;9.530;2024-02-28T10:44:43;8.40;99.60
2260;DHT22;333;48.800;9.530;2024-02-28T10:47:11;8.60;99.60
2260;DHT22;333;48.800;9.530;2024-02-28T10:49:38;8.70;99.60
2260;DHT22;333;48.800;9.530;2024-02-28T10:52:06;8.70;99.60
2260;DHT22;333;48.800;9.530;2024-02-28T10:54:39;8.70;99.60
2260;DHT22;333;48.800;9.530;2024-02-28T10:57:08;8.80;99.60
2260;DHT22;333;48.800;9.530;2024-02-28T10:59:37;8.80;99.60
2260;DHT22;333;48.800;9.530;2024-02-28T11:02:06;8.70;99.60
2260;DHT22;333;48.800;9.530;2024-02-28T11:04:33;8.50;99.60
2260;DHT22;333;48.800;9.530;2024-02-28T11:07:01;8.60;99.60
2260;DHT22;333;48.800;9.530;2024-02-28T11:09:29;8.30;99.60
2260;DHT22;333;48.800;9.530;2024-02-28T11:12:28;8.20;99.60
2260;DHT22;333;48.800;9.530;2024-02-28T11:14:59;8.10;99.60
2260;DHT22;333;48.800;9.530;2024-02-28T11:17:27;8.10;99.60
2260;DHT22;333;48.800;9.530;2024-02-28T11:19:55;8.30;99.60
2260;DHT22;333;48.800;9.530;2024-02-28T11:22:22;8.70;99.60
2260;DHT22;333;48.800;9.530;2024-02-28T11:24:49;8.70;99.60
2260;DHT22;333;48.800;9.530;2024-02-28T11:27:20;8.60;99.60
2260;DHT22;333;48.800;9.530;2024-02-28T11:29:48;8.30;99.60
2260;DHT22;333;48.800;9.530;2024-02-28T11:32:16;8.40;99.60
2260;DHT22;333;48.800;9.530;2024-02-28T11:34:43;8.30;99.60
2260;DHT22;333;48.800;9.530;2024-02-28T11:37:11;8.40;99.60
2260;DHT22;333;48.800;9.530;2024-02-28T11:39:38;8.50;99.60
2260;DHT22;333;48.800;9.530;2024-02-28T11:42:09;8.70;99.60
2260;DHT22;333;48.800;9.530;2024-02-28T11:44:36;8.60;99.60
2260;DHT22;333;48.800;9.530;2024-02-28T11:47:05;8.50;99.60
2260;DHT22;333;48.800;9.530;2024-02-28T11:49:33;8.40;99.60
2260;DHT22;333;48.800;9.530;2024-02-28T11:52:00;8.30;99.60
2260;DHT22;333;48.800;9.530;2024-02-28T11:54:27;8.30;99.60
2260;DHT22;333;48.800;9.530;2024-02-28T11:56:54;8.40;99.60
2260;DHT22;333;48.800;9.530;2024-02-28T11:59:21;8.40;99.60
2260;DHT22;333;48.800;9.530;2024-02-28T12:01:48;8.30;99.60
2260;DHT22;333;48.800;9.530;2024-02-28T12:04:17;8.30;99.60
2260;DHT22;333;48.800;9.530;2024-02-28T12:06:44;8.20;99.60
2260;DHT22;333;48.800;9.530;2024-02-28T12:09:12;8.20;99.60
2260;DHT22;333;48.800;9.530;2024-02-28T12:11:40;8.20;99.60
2260;DHT22;333;48.800;9.530;2024-02-28T12:14:08;8.20;99.60
2260;DHT22;333;48.800;9.530;2024-02-28T12:16:36;8.20;99.60
2260;DHT22;333;48.800;9.530;2024-02-28T12:19:07;8.30;99.60
2260;DHT22;333;48.800;9.530;2024-02-28T12:21:36;8.20;99.60
2260;DHT22;333;48.800;9.530;2024-02-28T12:24:04;8.10;99.60
2260;DHT22;333;48.800;9.530;2024-02-28T12:26:31;8.20;99.60
2260;DHT22;333;48.800;9.530;2024-02-28T12:28:59;8.40;99.60
2260;DHT22;333;48.800;9.530;2024-02-28T12:31:27;8.50;99.60
2260;DHT22;333;48.800;9.530;2024-02-28T12:33:54;8.50;99.60
2260;DHT22;333;48.800;9.530;2024-02-28T12:36:21;8.30;99.60
2260;DHT22;333;48.800;9.530;2024-02-28T12:38:50;8.50;99.60
2260;DHT22;333;48.800;9.530;2024-02-28T12:41:17;8.40;99.60
2260;DHT22;333;48.800;9.530;2024-02-28T12:43:44;8.20;99.60
2260;DHT22;333;48.800;9.530;2024-02-28T12:46:11;8.20;99.60
2260;DHT22;333;48.800;9.530;2024-02-28T12:48:40;8.50;99.60
2260;DHT22;333;48.800;9.530;2024-02-28T12:51:11;8.60;99.60
2260;DHT22;333;48.800;9.530;2024-02-28T12:53:38;8.80;99.60
2260;DHT22;333;48.800;9.530;2024-02-28T12:56:06;8.90;99.60
2260;DHT22;333;48.800;9.530;2024-02-28T12:58:33;8.90;99.60
2260;DHT22;333;48.800;9.530;2024-02-28T13:01:00;8.90;99.60
2260;DHT22;333;48.800;9.530;2024-02-28T13:03:27;8.90;99.60
2260;DHT22;333;48.800;9.530;2024-02-28T13:05:54;9.00;99.60
2260;DHT22;333;48.800;9.530;2024-02-28T13:08:21;9.00;99.60
2260;DHT22;333;48.800;9.530;2024-02-28T13:10:48;9.00;99.60
2260;DHT22;333;48.800;9.530;2024-02-28T13:13:16;9.10;99.60
2260;DHT22;333;48.800;9.530;2024-02-28T13:15:43;9.10;99.60
2260;DHT22;333;48.800;9.530;2024-02-28T13:18:11;9.00;99.60
2260;DHT22;333;48.800;9.530;2024-02-28T13:20:38;8.80;99.60
2260;DHT22;333;48.800;9.530;2024-02-28T13:23:06;8.80;99.60
2260;DHT22;333;48.800;9.530;2024-02-28T13:25:33;8.90;99.60
2260;DHT22;333;48.800;9.530;2024-02-28T13:28:00;8.80;99.60
2260;DHT22;333;48.800;9.530;2024-02-28T13:30:28;8.90;99.60
2260;DHT22;333;48.800;9.530;2024-02-28T13:32:55;8.80;99.60
2260;DHT22;333;48.800;9.530;2024-02-28T13:35:22;8.80;99.60
2260;DHT22;333;48.800;9.530;2024-02-28T13:37:49;8.70;99.60
2260;DHT22;333;48.800;9.530;2024-02-28T13:40:16;8.70;99.60
2260;DHT22;333;48.800;9.530;2024-02-28T13:42:43;8.70;99.60
2260;DHT22;333;48.800;9.530;2024-02-28T13:45:11;8.70;99.60
2260;DHT22;333;48.800;9.530;2024-02-28T13:47:39;8.70;99.60
2260;DHT22;333;48.800;9.530;2024-02-28T13:50:06;8.60;99.60
2260;DHT22;333;48.800;9.530;2024-02-28T13:52:35;8.50;99.60
2260;DHT22;333;48.800;9.530;2024-02-28T13:55:02;8.60;99.60
2260;DHT22;333;48.800;9.530;2024-02-28T13:57:30;8.50;99.60
2260;DHT22;333;48.800;9.530;2024-02-28T13:59:56;8.50;99.60
2260;DHT22;333;48.800;9.530;2024-02-28T14:02:23;8.40;99.60
2260;DHT22;333;48.800;9.530;2024-02-28T14:04:54;8.50;99.60
2260;DHT22;333;48.800;9.530;2024-02-28T14:07:21;8.50;99.60
2260;DHT22;333;48.800;9.530;2024-02-28T14:09:48;8.40;99.60
2260;DHT22;333;48.800;9.530;2024-02-28T14:12:15;8.40;99.60
2260;DHT22;333;48.800;9.530;2024-02-28T14:14:41;8.50;99.60
2260;DHT22;333;48.800;9.530;2024-02-28T14:17:09;8.50;99.60
2260;DHT22;333;48.800;9.530;2024-02-28T14:19:35;8.40;99.60
2260;DHT22;333;48.800;9.530;2024-02-28T14:22:04;8.50;99.60
2260;DHT22;333;48.800;9.530;2024-02-28T14:24:31;8.50;99.60
2260;DHT22;333;48.800;9.530;2024-02-28T14:26:58;8.60;99.60
2260;DHT22;333;48.800;9.530;2024-02-28T14:29:25;8.60;99.60
2260;DHT22;333;48.800;9.530;2024-02-28T14:31:52;8.50;99.60
2260;DHT22;333;48.800;9.530;2024-02-28T14:34:19;8.70;99.60
2260;DHT22;333;48.800;9.530;2024-02-28T14:36:47;8.70;99.60
2260;DHT22;333;48.800;9.530;2024-02-28T14:39:16;8.80;99.60
2260;DHT22;333;48.800;9.530;2024-02-28T14:41:44;8.80;99.60
2260;DHT22;333;48.800;9.530;2024-02-28T14:44:11;8.70;99.60
2260;DHT22;333;48.800;9.530;2024-02-28T14:46:39;8.70;99.60
2260;DHT22;333;48.800;9.530;2024-02-28T14:49:06;8.70;99.60
2260;DHT22;333;48.800;9.530;2024-02-28T14:51:33;8.70;99.60
2260;DHT22;333;48.800;9.530;2024-02-28T14:54:00;8.70;99.60
2260;DHT22;333;48.800;9.530;2024-02-28T14:56:29;8.70;99.60
2260;DHT22;333;48.800;9.530;2024-02-28T14:58:56;8.60;99.60
2260;DHT22;333;48.800;9.530;2024-02-28T15:01:23;8.60;99.60
2260;DHT22;333;48.800;9.530;2024-02-28T15:03:50;8.70;99.60
2260;DHT22;333;48.800;9.530;2024-02-28T15:06:17;8.70;99.60
2260;DHT22;333;48.800;9.530;2024-02-28T15:08:44;8.80;99.60
2260;DHT22;333;48.800;9.530;2024-02-28T15:11:11;8.80;99.60
2260;DHT22;333;48.800;9.530;2024-02-28T15:13:40;8.70;99.60
2260;DHT22;333;48.800;9.530;2024-02-28T15:16:07;8.70;99.60
2260;DHT22;333;48.800;9.530;2024-02-28T15:18:34;8.70;99.60
2260;DHT22;333;48.800;9.530;2024-02-28T15:21:01;8.80;99.60
2260;DHT22;333;48.800;9.530;2024-02-28T15:23:28;8.80;99.60
2260;DHT22;333;48.800;9.530;2024-02-28T15:25:56;8.70;99.60
2260;DHT22;333;48.800;9.530;2024-02-28T15:28:23;8.70;99.60
2260;DHT22;333;48.800;9.530;2024-02-28T15:30:53;8.60;99.60
2260;DHT22;333;48.800;9.530;2024-02-28T15:33:20;8.60;99.60
2260;DHT22;333;48.800;9.530;2024-02-28T15:35:47;8.50;99.60
2260;DHT22;333;48.800;9.530;2024-02-28T15:38:14;8.50;99.60
2260;DHT22;333;48.800;9.530;2024-02-28T15:40:41;8.50;99.60
2260;DHT22;333;48.800;9.530;2024-02-28T15:43:09;8.40;99.60
2260;DHT22;333;48.800;9.530;2024-02-28T15:45:36;8.40;99.60
2260;DHT22;333;48.800;9.530;2024-02-28T15:48:07;8.50;99.60
2260;DHT22;333;48.800;9.530;2024-02-28T15:50:34;8.40;99.60
2260;DHT22;333;48.800;9.530;2024-02-28T15:53:01;8.40;99.60
2260;DHT22;333;48.800;9.530;2024-02-28T15:55:30;8.50;99.60
2260;DHT22;333;48.800;9.530;2024-02-28T15:57:57;8.40;99.60
2260;DHT22;333;48.800;9.530;2024-02-28T16:00:25;8.40;99.60
2260;DHT22;333;48.800;9.530;2024-02-28T16:02:52;8.40;99.60
2260;DHT22;333;48.800;9.530;2024-02-28T16:05:20;8.40;99.60
2260;DHT22;333;48.800;9.530;2024-02-28T16:07:50;8.40;99.60
2260;DHT22;333;48.800;9.530;2024-02-28T16:10:17;8.40;99.60
2260;DHT22;333;48.800;9.530;2024-02-28T16:12:45;8.50;99.60
2260;DHT22;333;48.800;9.530;2024-02-28T16:15:13;8.50;99.60
2260;DHT22;333;48.800;9.530;2024-02-28T16:17:40;8.40;99.60
2260;DHT22;333;48.800;9.530;2024-02-28T16:20:07;8.30;99.60
2260;DHT22;333;48.800;9.530;2024-02-28T16:22:36;8.30;99.60
2260;DHT22;333;48.800;9.530;2024-02-28T16:25:04;8.40;99.60
2260;DHT22;333;48.800;9.530;2024-02-28T16:27:32;8.40;99.60
2260;DHT22;333;48.800;9.530;2024-02-28T16:30:00;8.40;99.60
2260;DHT22;333;48.800;9.530;2024-02-28T16:32:27;8.30;99.60
2260;DHT22;333;48.800;9.530;2024-02-28T16:34:56;8.30;99.60
2260;DHT22;333;48.800;9.530;2024-02-28T16:37:23;8.40;99.60